sensor_id;sensor_type;location;lat;lon;timestamp;pressure;altitude;pressure_sealevel;temperature;humidity
43298;BME280;28892;55.640;37.532;2022-08-25T00:00:36;99886.50;;;24.63;36.61
43298;BME280;28892;55.640;37.532;2022-08-25T00:03:04;99885.59;;;24.52;37.59
43298;BME280;28892;55.640;37.532;2022-08-25T00:05:30;99885.88;;;24.51;38.83
43298;BME280;28892;55.640;37.532;2022-08-25T00:07:56;99886.25;;;24.32;38.33
43298;BME280;28892;55.640;37.532;2022-08-25T00:10:22;99883.00;;;24.30;38.96
43298;BME280;28892;55.640;37.532;2022-08-25T00:12:48;99880.84;;;24.32;37.02
43298;BME280;28892;55.640;37.532;2022-08-25T00:15:14;99875.09;;;24.28;39.10
43298;BME280;28892;55.640;37.532;2022-08-25T00:17:40;99879.28;;;24.41;36.52
43298;BME280;28892;55.640;37.532;2022-08-25T00:20:06;99876.13;;;24.55;35.51
43298;BME280;28892;55.640;37.532;2022-08-25T00:22:34;99884.75;;;24.47;37.48
43298;BME280;28892;55.640;37.532;2022-08-25T00:24:59;99888.22;;;24.42;36.95
43298;BME280;28892;55.640;37.532;2022-08-25T00:27:25;99880.59;;;24.34;36.92
43298;BME280;28892;55.640;37.532;2022-08-25T00:29:51;99884.84;;;24.24;37.72
43298;BME280;28892;55.640;37.532;2022-08-25T00:32:17;99883.19;;;24.23;39.49
43298;BME280;28892;55.640;37.532;2022-08-25T00:34:44;99882.59;;;24.16;40.25
43298;BME280;28892;55.640;37.532;2022-08-25T00:37:10;99879.34;;;24.19;38.30
43298;BME280;28892;55.640;37.532;2022-08-25T00:39:36;99883.13;;;24.18;37.47
43298;BME280;28892;55.640;37.532;2022-08-25T00:42:02;99881.25;;;24.19;38.14
43298;BME280;28892;55.640;37.532;2022-08-25T00:44:30;99882.44;;;24.28;37.75
43298;BME280;28892;55.640;37.532;2022-08-25T00:46:59;99885.31;;;24.21;39.48
43298;BME280;28892;55.640;37.532;2022-08-25T00:49:39;99881.28;;;24.24;39.98
43298;BME280;28892;55.640;37.532;2022-08-25T00:52:09;99882.34;;;24.18;37.78
43298;BME280;28892;55.640;37.532;2022-08-25T00:54:39;99882.16;;;24.30;36.71
43298;BME280;28892;55.640;37.532;2022-08-25T00:57:06;99878.56;;;24.19;39.56
43298;BME280;28892;55.640;37.532;2022-08-25T00:59:33;99879.91;;;24.21;37.32
43298;BME280;28892;55.640;37.532;2022-08-25T01:02:00;99877.00;;;24.28;37.64
43298;BME280;28892;55.640;37.532;2022-08-25T01:04:26;99879.88;;;24.49;37.77
43298;BME280;28892;55.640;37.532;2022-08-25T01:06:53;99882.16;;;24.62;37.50
43298;BME280;28892;55.640;37.532;2022-08-25T01:09:19;99878.16;;;24.70;37.12
43298;BME280;28892;55.640;37.532;2022-08-25T01:11:46;99874.88;;;24.68;37.51
43298;BME280;28892;55.640;37.532;2022-08-25T01:14:14;99882.16;;;24.62;37.16
43298;BME280;28892;55.640;37.532;2022-08-25T01:16:41;99877.22;;;24.54;38.46
43298;BME280;28892;55.640;37.532;2022-08-25T01:19:09;99877.25;;;24.59;37.50
43298;BME280;28892;55.640;37.532;2022-08-25T01:21:42;99871.81;;;24.59;37.90
43298;BME280;28892;55.640;37.532;2022-08-25T01:24:11;99870.59;;;24.39;38.73
43298;BME280;28892;55.640;37.532;2022-08-25T01:26:40;99868.69;;;24.07;38.82
43298;BME280;28892;55.640;37.532;2022-08-25T01:29:08;99874.34;;;23.83;41.33
43298;BME280;28892;55.640;37.532;2022-08-25T01:31:59;99865.13;;;23.79;38.33
43298;BME280;28892;55.640;37.532;2022-08-25T01:34:28;99875.28;;;23.67;38.29
43298;BME280;28892;55.640;37.532;2022-08-25T01:36:56;99863.59;;;23.66;40.23
43298;BME280;28892;55.640;37.532;2022-08-25T01:39:23;99866.91;;;23.68;38.95
43298;BME280;28892;55.640;37.532;2022-08-25T01:42:02;99863.72;;;23.77;39.54
43298;BME280;28892;55.640;37.532;2022-08-25T01:44:31;99867.34;;;23.60;39.13
43298;BME280;28892;55.640;37.532;2022-08-25T01:46:57;99865.13;;;23.57;38.84
43298;BME280;28892;55.640;37.532;2022-08-25T01:49:23;99869.38;;;23.48;40.10
43298;BME280;28892;55.640;37.532;2022-08-25T01:51:56;99870.53;;;23.57;41.13
43298;BME280;28892;55.640;37.532;2022-08-25T01:54:25;99871.25;;;23.47;39.90
43298;BME280;28892;55.640;37.532;2022-08-25T01:56:50;99863.31;;;23.40;40.26
43298;BME280;28892;55.640;37.532;2022-08-25T01:59:17;99870.59;;;23.40;39.92
43298;BME280;28892;55.640;37.532;2022-08-25T02:01:44;99871.13;;;23.37;39.41
43298;BME280;28892;55.640;37.532;2022-08-25T02:04:10;99871.59;;;23.56;39.04
43298;BME280;28892;55.640;37.532;2022-08-25T02:06:37;99876.34;;;23.66;39.36
43298;BME280;28892;55.640;37.532;2022-08-25T02:09:08;99871.72;;;23.89;38.27
43298;BME280;28892;55.640;37.532;2022-08-25T02:11:39;99882.28;;;24.12;37.98
43298;BME280;28892;55.640;37.532;2022-08-25T02:14:07;99874.88;;;24.35;37.03
43298;BME280;28892;55.640;37.532;2022-08-25T02:16:36;99878.84;;;24.55;36.97
43298;BME280;28892;55.640;37.532;2022-08-25T02:19:04;99878.59;;;24.57;36.90
43298;BME280;28892;55.640;37.532;2022-08-25T02:21:31;99873.66;;;24.48;37.05
43298;BME280;28892;55.640;37.532;2022-08-25T02:23:57;99879.69;;;24.55;37.07
43298;BME280;28892;55.640;37.532;2022-08-25T02:26:23;99869.69;;;24.61;36.57
43298;BME280;28892;55.640;37.532;2022-08-25T02:28:50;99887.88;;;24.66;36.84
43298;BME280;28892;55.640;37.532;2022-08-25T02:31:19;99880.09;;;24.75;36.33
43298;BME280;28892;55.640;37.532;2022-08-25T02:33:45;99880.25;;;24.63;36.61
43298;BME280;28892;55.640;37.532;2022-08-25T02:36:11;99878.94;;;24.70;36.70
43298;BME280;28892;55.640;37.532;2022-08-25T02:38:37;99877.50;;;24.58;37.29
43298;BME280;28892;55.640;37.532;2022-08-25T02:41:19;99876.22;;;24.70;36.57
43298;BME280;28892;55.640;37.532;2022-08-25T02:43:47;99877.00;;;24.61;36.71
43298;BME280;28892;55.640;37.532;2022-08-25T02:46:14;99877.22;;;24.54;36.97
43298;BME280;28892;55.640;37.532;2022-08-25T02:48:41;99870.88;;;24.43;37.35
43298;BME280;28892;55.640;37.532;2022-08-25T02:51:08;99873.41;;;24.50;36.76
43298;BME280;28892;55.640;37.532;2022-08-25T02:53:35;99875.81;;;24.46;37.19
43298;BME280;28892;55.640;37.532;2022-08-25T02:56:07;99875.81;;;24.51;37.09
43298;BME280;28892;55.640;37.532;2022-08-25T02:58:34;99871.78;;;24.54;37.02
43298;BME280;28892;55.640;37.532;2022-08-25T03:01:01;99876.50;;;24.36;37.38
43298;BME280;28892;55.640;37.532;2022-08-25T03:03:27;99869.44;;;24.30;37.24
43298;BME280;28892;55.640;37.532;2022-08-25T03:05:52;99869.38;;;24.25;37.50
43298;BME280;28892;55.640;37.532;2022-08-25T03:08:19;99869.91;;;24.22;37.80
43298;BME280;28892;55.640;37.532;2022-08-25T03:10:45;99868.25;;;24.21;37.50
43298;BME280;28892;55.640;37.532;2022-08-25T03:13:11;99868.78;;;24.18;37.50
43298;BME280;28892;55.640;37.532;2022-08-25T03:15:37;99867.81;;;24.29;37.45
43298;BME280;28892;55.640;37.532;2022-08-25T03:18:04;99871.41;;;24.40;36.99
43298;BME280;28892;55.640;37.532;2022-08-25T03:20:30;99869.84;;;24.49;37.05
43298;BME280;28892;55.640;37.532;2022-08-25T03:22:56;99878.53;;;24.51;36.94
43298;BME280;28892;55.640;37.532;2022-08-25T03:25:21;99867.38;;;24.48;37.24
43298;BME280;28892;55.640;37.532;2022-08-25T03:28:07;99869.63;;;24.56;37.49
43298;BME280;28892;55.640;37.532;2022-08-25T03:30:33;99870.19;;;24.58;37.17
43298;BME280;28892;55.640;37.532;2022-08-25T03:32:59;99866.38;;;24.59;37.12
43298;BME280;28892;55.640;37.532;2022-08-25T03:35:25;99859.88;;;24.55;37.47
43298;BME280;28892;55.640;37.532;2022-08-25T03:37:54;99871.53;;;24.55;37.66
43298;BME280;28892;55.640;37.532;2022-08-25T03:40:20;99861.25;;;24.58;37.13
43298;BME280;28892;55.640;37.532;2022-08-25T03:42:47;99862.03;;;24.58;37.24
43298;BME280;28892;55.640;37.532;2022-08-25T03:45:15;99858.78;;;24.56;37.54
43298;BME280;28892;55.640;37.532;2022-08-25T03:47:45;99857.22;;;24.65;37.61
43298;BME280;28892;55.640;37.532;2022-08-25T03:50:12;99847.22;;;24.66;37.29
43298;BME280;28892;55.640;37.532;2022-08-25T03:52:38;99849.94;;;24.71;37.36
43298;BME280;28892;55.640;37.532;2022-08-25T03:55:05;99848.34;;;24.75;36.73
43298;BME280;28892;55.640;37.532;2022-08-25T03:57:32;99849.75;;;24.78;37.32
43298;BME280;28892;55.640;37.532;2022-08-25T03:59:58;99853.28;;;24.78;36.89
43298;BME280;28892;55.640;37.532;2022-08-25T04:02:23;99855.66;;;24.75;37.35
43298;BME280;28892;55.640;37.532;2022-08-25T04:04:49;99852.63;;;24.66;37.68
43298;BME280;28892;55.640;37.532;2022-08-25T04:07:16;99849.97;;;24.76;37.57
43298;BME280;28892;55.640;37.532;2022-08-25T04:09:41;99851.41;;;24.84;37.32
43298;BME280;28892;55.640;37.532;2022-08-25T04:12:07;99845.47;;;24.92;36.83
43298;BME280;28892;55.640;37.532;2022-08-25T04:14:33;99848.78;;;25.00;36.76
43298;BME280;28892;55.640;37.532;2022-08-25T04:16:59;99849.09;;;25.08;37.09
43298;BME280;28892;55.640;37.532;2022-08-25T04:19:25;99843.91;;;25.02;37.12
43298;BME280;28892;55.640;37.532;2022-08-25T04:21:51;99845.47;;;24.92;37.57
43298;BME280;28892;55.640;37.532;2022-08-25T04:24:17;99846.06;;;25.00;37.42
43298;BME280;28892;55.640;37.532;2022-08-25T04:26:46;99837.56;;;24.80;37.40
43298;BME280;28892;55.640;37.532;2022-08-25T04:29:14;99838.41;;;24.91;37.71
43298;BME280;28892;55.640;37.532;2022-08-25T04:31:43;99841.97;;;24.97;37.26
43298;BME280;28892;55.640;37.532;2022-08-25T04:34:11;99836.56;;;24.97;37.37
43298;BME280;28892;55.640;37.532;2022-08-25T04:36:40;99832.34;;;25.22;37.19
43298;BME280;28892;55.640;37.532;2022-08-25T04:39:06;99835.34;;;25.25;37.33
43298;BME280;28892;55.640;37.532;2022-08-25T04:41:32;99829.09;;;25.30;36.93
43298;BME280;28892;55.640;37.532;2022-08-25T04:44:00;99841.03;;;25.29;37.24
43298;BME280;28892;55.640;37.532;2022-08-25T04:46:31;99838.75;;;25.59;37.29
43298;BME280;28892;55.640;37.532;2022-08-25T04:48:58;99840.16;;;25.82;36.16
43298;BME280;28892;55.640;37.532;2022-08-25T04:51:35;99836.09;;;25.95;36.55
43298;BME280;28892;55.640;37.532;2022-08-25T04:54:05;99837.75;;;26.01;36.09
43298;BME280;28892;55.640;37.532;2022-08-25T04:56:31;99834.47;;;25.99;35.81
43298;BME280;28892;55.640;37.532;2022-08-25T04:59:06;99832.88;;;26.29;35.32
43298;BME280;28892;55.640;37.532;2022-08-25T05:01:33;99828.53;;;26.33;35.31
43298;BME280;28892;55.640;37.532;2022-08-25T05:04:01;99826.38;;;26.46;35.09
43298;BME280;28892;55.640;37.532;2022-08-25T05:06:28;99825.78;;;26.54;35.01
43298;BME280;28892;55.640;37.532;2022-08-25T05:08:55;99828.25;;;26.61;34.39
43298;BME280;28892;55.640;37.532;2022-08-25T05:11:25;99826.28;;;26.82;34.96
43298;BME280;28892;55.640;37.532;2022-08-25T05:13:52;99824.13;;;26.89;34.50
43298;BME280;28892;55.640;37.532;2022-08-25T05:16:20;99826.28;;;27.03;33.96
43298;BME280;28892;55.640;37.532;2022-08-25T05:18:46;99820.22;;;27.16;34.38
43298;BME280;28892;55.640;37.532;2022-08-25T05:21:15;99818.81;;;27.24;34.58
43298;BME280;28892;55.640;37.532;2022-08-25T05:23:42;99820.75;;;27.24;34.22
43298;BME280;28892;55.640;37.532;2022-08-25T05:26:11;99825.06;;;27.30;33.63
43298;BME280;28892;55.640;37.532;2022-08-25T05:28:39;99824.03;;;27.15;34.03
43298;BME280;28892;55.640;37.532;2022-08-25T05:31:10;99812.75;;;27.43;33.36
43298;BME280;28892;55.640;37.532;2022-08-25T05:33:38;99821.72;;;27.48;33.21
43298;BME280;28892;55.640;37.532;2022-08-25T05:36:04;99819.47;;;27.61;33.18
43298;BME280;28892;55.640;37.532;2022-08-25T05:38:31;99817.22;;;27.73;32.61
43298;BME280;28892;55.640;37.532;2022-08-25T05:40:58;99828.13;;;27.73;32.88
43298;BME280;28892;55.640;37.532;2022-08-25T05:43:24;99818.56;;;27.76;32.97
43298;BME280;28892;55.640;37.532;2022-08-25T05:45:52;99817.34;;;27.98;32.04
43298;BME280;28892;55.640;37.532;2022-08-25T05:48:19;99814.84;;;28.01;32.25
43298;BME280;28892;55.640;37.532;2022-08-25T05:50:56;99810.31;;;28.26;32.59
43298;BME280;28892;55.640;37.532;2022-08-25T05:53:23;99817.22;;;28.13;32.05
43298;BME280;28892;55.640;37.532;2022-08-25T05:55:50;99816.75;;;28.41;31.77
43298;BME280;28892;55.640;37.532;2022-08-25T05:58:16;99813.06;;;28.56;31.84
43298;BME280;28892;55.640;37.532;2022-08-25T06:00:42;99815.88;;;28.46;31.36
43298;BME280;28892;55.640;37.532;2022-08-25T06:03:09;99814.47;;;28.48;31.07
43298;BME280;28892;55.640;37.532;2022-08-25T06:05:35;99823.84;;;28.37;31.15
43298;BME280;28892;55.640;37.532;2022-08-25T06:08:00;99817.88;;;28.35;31.58
43298;BME280;28892;55.640;37.532;2022-08-25T06:10:27;99818.00;;;28.78;30.76
43298;BME280;28892;55.640;37.532;2022-08-25T06:12:53;99813.56;;;28.88;30.35
43298;BME280;28892;55.640;37.532;2022-08-25T06:15:21;99805.38;;;28.88;30.08
43298;BME280;28892;55.640;37.532;2022-08-25T06:17:48;99817.84;;;29.18;30.37
43298;BME280;28892;55.640;37.532;2022-08-25T06:20:19;99821.31;;;29.48;30.22
43298;BME280;28892;55.640;37.532;2022-08-25T06:22:46;99815.47;;;29.55;29.92
43298;BME280;28892;55.640;37.532;2022-08-25T06:25:15;99821.97;;;29.78;29.50
43298;BME280;28892;55.640;37.532;2022-08-25T06:27:41;99818.63;;;29.81;29.76
43298;BME280;28892;55.640;37.532;2022-08-25T06:30:09;99816.28;;;29.75;29.73
43298;BME280;28892;55.640;37.532;2022-08-25T06:32:37;99814.81;;;29.63;29.75
43298;BME280;28892;55.640;37.532;2022-08-25T06:35:05;99816.56;;;29.73;30.17
43298;BME280;28892;55.640;37.532;2022-08-25T06:37:31;99816.72;;;29.82;29.25
43298;BME280;28892;55.640;37.532;2022-08-25T06:39:57;99808.53;;;29.44;29.81
43298;BME280;28892;55.640;37.532;2022-08-25T06:42:23;99807.31;;;29.88;29.34
43298;BME280;28892;55.640;37.532;2022-08-25T06:44:48;99803.56;;;29.84;29.15
43298;BME280;28892;55.640;37.532;2022-08-25T06:47:15;99810.19;;;30.16;28.88
43298;BME280;28892;55.640;37.532;2022-08-25T06:49:43;99813.78;;;30.31;28.96
43298;BME280;28892;55.640;37.532;2022-08-25T06:52:10;99805.38;;;30.41;28.71
43298;BME280;28892;55.640;37.532;2022-08-25T06:54:36;99809.22;;;30.73;28.87
43298;BME280;28892;55.640;37.532;2022-08-25T06:57:02;99801.91;;;30.97;27.97
43298;BME280;28892;55.640;37.532;2022-08-25T06:59:28;99800.91;;;30.78;27.52
43298;BME280;28892;55.640;37.532;2022-08-25T07:01:54;99797.56;;;30.82;28.23
43298;BME280;28892;55.640;37.532;2022-08-25T07:04:20;99799.69;;;30.99;27.62
43298;BME280;28892;55.640;37.532;2022-08-25T07:06:46;99798.22;;;31.29;26.93
43298;BME280;28892;55.640;37.532;2022-08-25T07:09:11;99801.09;;;31.61;26.63
43298;BME280;28892;55.640;37.532;2022-08-25T07:11:39;99803.63;;;31.71;26.28
43298;BME280;28892;55.640;37.532;2022-08-25T07:14:09;99807.53;;;31.56;27.05
43298;BME280;28892;55.640;37.532;2022-08-25T07:16:41;99797.81;;;31.22;26.67
43298;BME280;28892;55.640;37.532;2022-08-25T07:19:10;99797.22;;;30.83;27.12
43298;BME280;28892;55.640;37.532;2022-08-25T07:21:38;99808.91;;;30.75;27.16
43298;BME280;28892;55.640;37.532;2022-08-25T07:24:05;99794.59;;;30.92;26.96
43298;BME280;28892;55.640;37.532;2022-08-25T07:26:33;99800.78;;;30.98;26.98
43298;BME280;28892;55.640;37.532;2022-08-25T07:29:24;99797.44;;;31.01;27.17
43298;BME280;28892;55.640;37.532;2022-08-25T07:31:50;99788.00;;;30.93;26.97
43298;BME280;28892;55.640;37.532;2022-08-25T07:34:16;99793.56;;;31.02;26.46
43298;BME280;28892;55.640;37.532;2022-08-25T07:37:01;99789.84;;;30.98;26.95
43298;BME280;28892;55.640;37.532;2022-08-25T07:39:29;99801.50;;;30.75;26.93
43298;BME280;28892;55.640;37.532;2022-08-25T07:41:55;99791.78;;;30.69;27.63
43298;BME280;28892;55.640;37.532;2022-08-25T07:44:22;99793.06;;;31.14;27.53
43298;BME280;28892;55.640;37.532;2022-08-25T07:46:49;99792.22;;;31.41;26.19
43298;BME280;28892;55.640;37.532;2022-08-25T07:49:16;99781.09;;;31.60;26.25
43298;BME280;28892;55.640;37.532;2022-08-25T07:51:43;99790.88;;;31.75;26.18
43298;BME280;28892;55.640;37.532;2022-08-25T07:54:09;99783.59;;;31.20;25.86
43298;BME280;28892;55.640;37.532;2022-08-25T07:56:34;99785.31;;;31.44;26.55
43298;BME280;28892;55.640;37.532;2022-08-25T07:59:00;99775.28;;;31.39;25.39
43298;BME280;28892;55.640;37.532;2022-08-25T08:01:26;99781.06;;;31.38;25.75
43298;BME280;28892;55.640;37.532;2022-08-25T08:03:51;99773.84;;;31.42;26.17
43298;BME280;28892;55.640;37.532;2022-08-25T08:06:20;99774.84;;;31.46;27.13
43298;BME280;28892;55.640;37.532;2022-08-25T08:08:48;99782.50;;;31.58;26.38
43298;BME280;28892;55.640;37.532;2022-08-25T08:11:26;99771.56;;;31.58;26.07
43298;BME280;28892;55.640;37.532;2022-08-25T08:13:54;99775.47;;;31.43;26.19
43298;BME280;28892;55.640;37.532;2022-08-25T08:16:22;99771.66;;;31.89;26.81
43298;BME280;28892;55.640;37.532;2022-08-25T08:18:48;99759.56;;;31.90;26.54
43298;BME280;28892;55.640;37.532;2022-08-25T08:21:22;99767.28;;;32.11;25.72
43298;BME280;28892;55.640;37.532;2022-08-25T08:23:50;99763.09;;;31.68;26.19
43298;BME280;28892;55.640;37.532;2022-08-25T08:26:16;99757.47;;;31.87;26.18
43298;BME280;28892;55.640;37.532;2022-08-25T08:28:42;99758.31;;;32.19;25.82
43298;BME280;28892;55.640;37.532;2022-08-25T08:31:08;99754.06;;;32.45;25.32
43298;BME280;28892;55.640;37.532;2022-08-25T08:33:34;99762.28;;;32.45;25.48
43298;BME280;28892;55.640;37.532;2022-08-25T08:36:01;99751.56;;;32.66;24.54
43298;BME280;28892;55.640;37.532;2022-08-25T08:38:27;99738.38;;;32.86;24.74
43298;BME280;28892;55.640;37.532;2022-08-25T08:47:10;99753.00;;;33.39;24.56
43298;BME280;28892;55.640;37.532;2022-08-25T08:50:05;99744.34;;;32.79;24.54
43298;BME280;28892;55.640;37.532;2022-08-25T08:55:23;99743.75;;;33.00;24.30
43298;BME280;28892;55.640;37.532;2022-08-25T08:57:52;99731.34;;;33.20;24.50
43298;BME280;28892;55.640;37.532;2022-08-25T09:00:21;99735.53;;;33.26;24.53
43298;BME280;28892;55.640;37.532;2022-08-25T09:02:53;99736.03;;;33.46;25.22
43298;BME280;28892;55.640;37.532;2022-08-25T09:05:25;99738.31;;;33.53;24.08
43298;BME280;28892;55.640;37.532;2022-08-25T09:07:56;99739.69;;;33.94;23.48
43298;BME280;28892;55.640;37.532;2022-08-25T09:10:25;99742.09;;;34.13;22.99
43298;BME280;28892;55.640;37.532;2022-08-25T09:21:58;99729.81;;;36.32;19.91
43298;BME280;28892;55.640;37.532;2022-08-25T09:32:27;99732.25;;;34.04;22.40
43298;BME280;28892;55.640;37.532;2022-08-25T09:34:55;99714.16;;;33.85;21.03
43298;BME280;28892;55.640;37.532;2022-08-25T09:37:21;99722.63;;;33.71;21.01
43298;BME280;28892;55.640;37.532;2022-08-25T09:39:48;99711.22;;;33.99;20.91
43298;BME280;28892;55.640;37.532;2022-08-25T09:42:14;99710.47;;;33.72;22.35
43298;BME280;28892;55.640;37.532;2022-08-25T09:44:42;99723.25;;;33.06;23.43
43298;BME280;28892;55.640;37.532;2022-08-25T09:49:49;99711.75;;;33.13;23.95
43298;BME280;28892;55.640;37.532;2022-08-25T09:54:43;99713.56;;;33.35;23.46
43298;BME280;28892;55.640;37.532;2022-08-25T09:57:33;99711.09;;;33.69;23.12
43298;BME280;28892;55.640;37.532;2022-08-25T10:02:38;99693.88;;;34.46;22.79
43298;BME280;28892;55.640;37.532;2022-08-25T10:05:24;99701.56;;;34.32;22.40
43298;BME280;28892;55.640;37.532;2022-08-25T10:07:56;99696.25;;;34.87;22.59
43298;BME280;28892;55.640;37.532;2022-08-25T10:10:31;99689.63;;;35.09;20.85
43298;BME280;28892;55.640;37.532;2022-08-25T10:12:57;99693.13;;;33.80;21.92
43298;BME280;28892;55.640;37.532;2022-08-25T10:15:32;99691.06;;;33.42;22.17
43298;BME280;28892;55.640;37.532;2022-08-25T10:20:40;99692.19;;;33.76;21.84
43298;BME280;28892;55.640;37.532;2022-08-25T10:23:11;99688.97;;;33.65;21.51
43298;BME280;28892;55.640;37.532;2022-08-25T10:25:45;99684.44;;;33.16;22.25
43298;BME280;28892;55.640;37.532;2022-08-25T10:28:28;99684.88;;;32.83;22.44
43298;BME280;28892;55.640;37.532;2022-08-25T10:33:48;99680.84;;;32.23;23.23
43298;BME280;28892;55.640;37.532;2022-08-25T10:36:41;99683.69;;;32.49;22.75
43298;BME280;28892;55.640;37.532;2022-08-25T10:39:23;99677.81;;;33.26;22.38
43298;BME280;28892;55.640;37.532;2022-08-25T10:42:10;99676.16;;;33.78;21.70
43298;BME280;28892;55.640;37.532;2022-08-25T10:45:02;99675.56;;;34.11;21.54
43298;BME280;28892;55.640;37.532;2022-08-25T10:50:29;99671.09;;;35.52;20.57
43298;BME280;28892;55.640;37.532;2022-08-25T10:56:20;99663.03;;;35.13;21.00
43298;BME280;28892;55.640;37.532;2022-08-25T11:04:02;99652.31;;;34.90;21.41
43298;BME280;28892;55.640;37.532;2022-08-25T11:06:59;99653.47;;;34.29;22.44
43298;BME280;28892;55.640;37.532;2022-08-25T11:09:32;99649.06;;;33.50;22.88
43298;BME280;28892;55.640;37.532;2022-08-25T11:14:45;99633.13;;;33.82;22.34
43298;BME280;28892;55.640;37.532;2022-08-25T11:17:21;99643.63;;;34.49;22.61
43298;BME280;28892;55.640;37.532;2022-08-25T11:19:55;99635.91;;;34.94;21.53
43298;BME280;28892;55.640;37.532;2022-08-25T11:22:36;99634.28;;;35.48;21.28
43298;BME280;28892;55.640;37.532;2022-08-25T11:25:18;99628.16;;;35.63;21.03
43298;BME280;28892;55.640;37.532;2022-08-25T11:30:22;99613.97;;;35.06;20.53
43298;BME280;28892;55.640;37.532;2022-08-25T11:32:50;99621.09;;;34.56;20.82
43298;BME280;28892;55.640;37.532;2022-08-25T11:35:25;99609.25;;;33.95;21.66
43298;BME280;28892;55.640;37.532;2022-08-25T11:51:43;99599.44;;;34.46;21.21
43298;BME280;28892;55.640;37.532;2022-08-25T11:54:28;99598.44;;;33.99;22.06
43298;BME280;28892;55.640;37.532;2022-08-25T11:57:06;99601.47;;;33.67;22.31
43298;BME280;28892;55.640;37.532;2022-08-25T12:02:44;99592.66;;;34.52;21.23
43298;BME280;28892;55.640;37.532;2022-08-25T12:13:47;99584.19;;;33.58;22.38
43298;BME280;28892;55.640;37.532;2022-08-25T12:19:30;99591.44;;;33.63;22.57
43298;BME280;28892;55.640;37.532;2022-08-25T12:30:14;99576.19;;;32.91;23.76
43298;BME280;28892;55.640;37.532;2022-08-25T12:38:48;99562.13;;;32.93;22.76
43298;BME280;28892;55.640;37.532;2022-08-25T12:41:19;99570.03;;;33.03;23.08
43298;BME280;28892;55.640;37.532;2022-08-25T12:43:48;99560.97;;;32.76;22.98
43298;BME280;28892;55.640;37.532;2022-08-25T12:49:00;99555.47;;;32.41;23.40
43298;BME280;28892;55.640;37.532;2022-08-25T12:59:58;99548.31;;;32.22;23.16
43298;BME280;28892;55.640;37.532;2022-08-25T13:05:10;99549.25;;;32.09;24.03
43298;BME280;28892;55.640;37.532;2022-08-25T13:10:43;99550.66;;;31.88;24.53
43298;BME280;28892;55.640;37.532;2022-08-25T13:13:30;99544.72;;;32.04;24.31
43298;BME280;28892;55.640;37.532;2022-08-25T13:16:05;99547.25;;;31.83;24.29
43298;BME280;28892;55.640;37.532;2022-08-25T13:18:36;99534.03;;;31.53;23.94
43298;BME280;28892;55.640;37.532;2022-08-25T13:21:15;99539.19;;;31.55;24.15
43298;BME280;28892;55.640;37.532;2022-08-25T13:23:45;99535.69;;;31.63;24.18
43298;BME280;28892;55.640;37.532;2022-08-25T13:26:27;99537.78;;;31.66;24.27
43298;BME280;28892;55.640;37.532;2022-08-25T13:31:25;99531.84;;;31.73;25.23
43298;BME280;28892;55.640;37.532;2022-08-25T13:33:59;99525.88;;;31.71;24.87
43298;BME280;28892;55.640;37.532;2022-08-25T13:36:29;99525.53;;;31.63;25.31
43298;BME280;28892;55.640;37.532;2022-08-25T13:39:16;99522.84;;;31.72;24.66
43298;BME280;28892;55.640;37.532;2022-08-25T13:41:48;99523.00;;;31.76;24.73
43298;BME280;28892;55.640;37.532;2022-08-25T13:44:16;99524.75;;;31.72;24.32
43298;BME280;28892;55.640;37.532;2022-08-25T13:46:43;99520.03;;;31.63;24.69
43298;BME280;28892;55.640;37.532;2022-08-25T13:49:10;99514.41;;;31.60;24.91
43298;BME280;28892;55.640;37.532;2022-08-25T13:51:38;99518.69;;;31.43;25.16
43298;BME280;28892;55.640;37.532;2022-08-25T13:54:08;99514.34;;;31.51;25.31
43298;BME280;28892;55.640;37.532;2022-08-25T13:56:53;99515.47;;;31.50;25.31
43298;BME280;28892;55.640;37.532;2022-08-25T13:59:31;99513.88;;;31.58;24.73
43298;BME280;28892;55.640;37.532;2022-08-25T14:01:58;99511.81;;;31.63;25.23
43298;BME280;28892;55.640;37.532;2022-08-25T14:07:06;99503.31;;;31.74;24.73
43298;BME280;28892;55.640;37.532;2022-08-25T14:09:59;99495.00;;;31.88;24.53
43298;BME280;28892;55.640;37.532;2022-08-25T14:17:36;99490.88;;;31.68;25.32
43298;BME280;28892;55.640;37.532;2022-08-25T14:20:04;99499.09;;;31.04;25.97
43298;BME280;28892;55.640;37.532;2022-08-25T14:22:30;99493.44;;;31.01;25.53
43298;BME280;28892;55.640;37.532;2022-08-25T14:24:56;99488.78;;;31.01;26.32
43298;BME280;28892;55.640;37.532;2022-08-25T14:27:22;99490.06;;;31.04;26.21
43298;BME280;28892;55.640;37.532;2022-08-25T14:29:48;99487.59;;;30.93;26.04
43298;BME280;28892;55.640;37.532;2022-08-25T14:32:15;99484.44;;;31.00;25.06
43298;BME280;28892;55.640;37.532;2022-08-25T14:34:41;99484.59;;;31.04;25.51
43298;BME280;28892;55.640;37.532;2022-08-25T14:37:12;99487.16;;;31.00;25.96
43298;BME280;28892;55.640;37.532;2022-08-25T14:39:38;99487.47;;;30.99;25.69
43298;BME280;28892;55.640;37.532;2022-08-25T14:42:03;99477.69;;;31.06;25.24
43298;BME280;28892;55.640;37.532;2022-08-25T14:44:29;99482.00;;;30.99;25.37
43298;BME280;28892;55.640;37.532;2022-08-25T14:46:56;99481.50;;;30.97;26.82
43298;BME280;28892;55.640;37.532;2022-08-25T14:49:28;99477.47;;;30.94;26.69
43298;BME280;28892;55.640;37.532;2022-08-25T14:52:21;99468.59;;;30.97;25.86
43298;BME280;28892;55.640;37.532;2022-08-25T14:54:48;99470.47;;;30.88;26.00
43298;BME280;28892;55.640;37.532;2022-08-25T14:57:15;99471.94;;;30.85;26.55
43298;BME280;28892;55.640;37.532;2022-08-25T14:59:41;99471.06;;;30.76;26.05
43298;BME280;28892;55.640;37.532;2022-08-25T15:02:07;99475.59;;;30.80;25.93
43298;BME280;28892;55.640;37.532;2022-08-25T15:04:34;99472.69;;;30.77;26.21
43298;BME280;28892;55.640;37.532;2022-08-25T15:07:00;99459.91;;;30.72;25.99